createdAt,value
2018-10-01T00:02:13.683Z,5.30
2018-10-01T00:04:41.803Z,5.30
2018-10-01T00:07:09.940Z,5.30
2018-10-01T00:09:38.062Z,5.30
2018-10-01T00:12:06.201Z,5.30
2018-10-01T00:14:34.300Z,5.20
2018-10-01T00:17:02.420Z,5.30
2018-10-01T00:19:35.882Z,5.30
2018-10-01T00:22:09.340Z,5.20
2018-10-01T00:24:37.470Z,5.30
2018-10-01T00:27:05.858Z,5.30
2018-10-01T00:29:33.968Z,5.30
2018-10-01T00:32:02.052Z,5.20
2018-10-01T00:34:30.193Z,5.20
2018-10-01T00:36:58.325Z,5.20
2018-10-01T00:39:26.444Z,5.20
2018-10-01T00:41:54.555Z,5.20
2018-10-01T00:44:22.707Z,5.10
2018-10-01T00:46:50.813Z,5.10
2018-10-01T00:49:18.946Z,5.10
2018-10-01T00:51:47.085Z,5.10
2018-10-01T00:54:15.211Z,5.10
2018-10-01T00:56:43.310Z,5.10
2018-10-01T00:59:11.464Z,5.10
2018-10-01T01:01:39.597Z,5.20
2018-10-01T01:04:07.729Z,5.10
2018-10-01T01:06:35.818Z,5.10
2018-10-01T01:09:05.363Z,5.10
2018-10-01T01:11:33.498Z,5.10
2018-10-01T01:14:02.653Z,5.10
2018-10-01T01:16:30.788Z,5.00
2018-10-01T01:18:58.924Z,5.00
2018-10-01T01:21:27.064Z,5.00
2018-10-01T01:23:55.170Z,5.00
2018-10-01T01:26:23.313Z,5.00
2018-10-01T01:28:51.485Z,4.90
2018-10-01T01:31:19.596Z,4.90
2018-10-01T01:33:47.688Z,4.80
2018-10-01T01:36:16.514Z,4.80
2018-10-01T01:38:44.628Z,4.80
2018-10-01T01:41:12.756Z,4.80
2018-10-01T01:43:40.904Z,4.80
2018-10-01T01:46:09.247Z,4.70
2018-10-01T01:48:37.378Z,4.60
2018-10-01T01:51:05.880Z,4.60
2018-10-01T01:53:34.089Z,4.50
2018-10-01T01:56:02.245Z,4.50
2018-10-01T01:58:30.387Z,4.50
2018-10-01T02:00:58.496Z,4.50
2018-10-01T02:03:26.610Z,4.40
2018-10-01T02:05:54.793Z,4.40
2018-10-01T02:08:22.944Z,4.40
2018-10-01T02:10:51.085Z,4.30
2018-10-01T02:13:19.227Z,4.40
2018-10-01T02:15:47.349Z,4.40
2018-10-01T02:18:15.480Z,4.40
2018-10-01T02:20:43.584Z,4.40
2018-10-01T02:23:11.949Z,4.30
2018-10-01T02:25:40.104Z,4.20
2018-10-01T02:28:08.203Z,4.20
2018-10-01T02:30:36.316Z,4.10
2018-10-01T02:33:04.489Z,4.20
2018-10-01T02:35:32.628Z,4.10
2018-10-01T02:38:00.773Z,4.10
2018-10-01T02:40:28.959Z,4.00
2018-10-01T02:42:57.079Z,4.00
2018-10-01T02:45:25.431Z,4.00
2018-10-01T02:47:53.628Z,4.00
2018-10-01T02:50:21.737Z,4.00
2018-10-01T02:52:55.277Z,3.90
2018-10-01T02:55:23.424Z,3.90
2018-10-01T02:57:51.586Z,3.90
2018-10-01T03:00:19.721Z,3.90
2018-10-01T03:02:47.845Z,3.80
2018-10-01T03:05:16.001Z,3.80
2018-10-01T03:07:44.347Z,3.80
2018-10-01T03:10:12.467Z,3.80
2018-10-01T03:12:40.603Z,3.80
2018-10-01T03:15:08.801Z,3.80
2018-10-01T03:17:36.941Z,3.80
2018-10-01T03:20:06.156Z,3.70
2018-10-01T03:22:34.295Z,3.70
2018-10-01T03:25:02.465Z,3.70
2018-10-01T03:27:30.579Z,3.70
2018-10-01T03:29:58.753Z,3.70
2018-10-01T03:32:26.868Z,3.70
2018-10-01T03:34:54.999Z,3.70
2018-10-01T03:37:23.134Z,3.70
2018-10-01T03:39:52.194Z,3.70
2018-10-01T03:42:20.323Z,3.70
2018-10-01T03:44:55.166Z,3.70
2018-10-01T03:47:23.265Z,3.70
2018-10-01T03:49:51.405Z,3.60
2018-10-01T03:52:19.544Z,3.60
2018-10-01T03:54:47.651Z,3.60
2018-10-01T03:57:15.752Z,3.60
2018-10-01T03:59:43.902Z,3.60
2018-10-01T04:02:12.017Z,3.60
2018-10-01T04:04:40.128Z,3.60
2018-10-01T04:07:08.231Z,3.60
2018-10-01T04:09:36.432Z,3.60
2018-10-01T04:12:04.595Z,3.60
2018-10-01T04:14:32.779Z,3.60
2018-10-01T04:17:01.615Z,3.60
2018-10-01T04:19:29.737Z,3.60
2018-10-01T04:21:57.938Z,3.60
2018-10-01T04:24:26.052Z,3.60
2018-10-01T04:26:54.177Z,3.70
2018-10-01T04:29:22.292Z,3.80
2018-10-01T04:31:50.403Z,3.80
2018-10-01T04:34:18.523Z,3.90
2018-10-01T04:36:46.636Z,4.00
2018-10-01T04:39:14.963Z,4.10
2018-10-01T04:41:43.228Z,4.10
2018-10-01T04:44:11.790Z,4.20
2018-10-01T04:46:40.658Z,4.30
2018-10-01T04:49:09.971Z,4.40
2018-10-01T04:51:38.419Z,4.50
2018-10-01T04:54:06.665Z,4.60
2018-10-01T04:56:34.845Z,4.70
2018-10-01T04:59:02.937Z,4.70
2018-10-01T05:01:31.093Z,4.80
2018-10-01T05:03:59.261Z,4.90
2018-10-01T05:06:27.439Z,4.90
2018-10-01T05:08:55.756Z,5.00
2018-10-01T05:11:23.917Z,5.10
2018-10-01T05:13:52.321Z,5.20
2018-10-01T05:16:20.500Z,5.20
2018-10-01T05:18:48.640Z,5.20
2018-10-01T05:21:16.789Z,5.20
2018-10-01T05:23:44.941Z,5.20
2018-10-01T05:26:13.091Z,5.20
2018-10-01T05:28:41.240Z,5.30
2018-10-01T05:31:09.732Z,5.30
2018-10-01T05:33:37.895Z,5.30
2018-10-01T05:36:06.019Z,5.40
2018-10-01T05:38:34.289Z,5.40
2018-10-01T05:41:02.460Z,5.50
2018-10-01T05:43:30.591Z,5.50
2018-10-01T05:45:58.741Z,5.60
2018-10-01T05:48:26.881Z,5.70
2018-10-01T05:50:55.002Z,5.80
2018-10-01T05:53:23.115Z,5.90
2018-10-01T05:55:51.258Z,5.90
2018-10-01T05:58:19.389Z,6.00
2018-10-01T06:00:47.607Z,6.10
2018-10-01T06:03:15.727Z,6.10
2018-10-01T06:05:43.819Z,6.20
2018-10-01T06:08:11.951Z,6.30
2018-10-01T06:10:40.058Z,6.30
2018-10-01T06:13:08.213Z,6.40
2018-10-01T06:15:36.304Z,6.40
2018-10-01T06:18:04.447Z,6.50
2018-10-01T06:20:32.566Z,6.60
2018-10-01T06:23:00.706Z,6.60
2018-10-01T06:25:28.815Z,6.60
2018-10-01T06:27:56.957Z,6.70
2018-10-01T06:30:25.098Z,6.70
2018-10-01T06:32:53.268Z,6.80
2018-10-01T06:35:21.434Z,6.90
2018-10-01T06:37:49.580Z,6.90
2018-10-01T06:40:17.757Z,7.00
2018-10-01T06:42:45.899Z,7.00
2018-10-01T06:45:14.050Z,7.10
2018-10-01T06:47:42.201Z,7.20
2018-10-01T06:50:10.355Z,7.30
2018-10-01T06:52:38.488Z,7.30
2018-10-01T06:55:06.652Z,7.40
2018-10-01T06:57:34.757Z,7.60
2018-10-01T07:00:03.901Z,7.70
2018-10-01T07:02:32.088Z,7.90
2018-10-01T07:05:00.212Z,8.00
2018-10-01T07:07:28.342Z,8.10
2018-10-01T07:09:56.445Z,8.30
2018-10-01T07:12:24.543Z,8.50
2018-10-01T07:14:52.632Z,8.60
2018-10-01T07:17:20.846Z,8.70
2018-10-01T07:19:48.876Z,8.80
2018-10-01T07:22:17.020Z,8.80
2018-10-01T07:24:45.209Z,9.00
2018-10-01T07:27:13.345Z,9.10
2018-10-01T07:29:41.447Z,9.20
2018-10-01T07:32:09.590Z,9.20
2018-10-01T07:34:37.707Z,9.30
2018-10-01T07:37:05.949Z,9.40
2018-10-01T07:39:34.057Z,9.50
2018-10-01T07:42:02.177Z,9.60
2018-10-01T07:44:30.339Z,9.80
2018-10-01T07:46:58.476Z,9.80
2018-10-01T07:49:26.563Z,10.00
2018-10-01T07:51:54.757Z,10.20
2018-10-01T07:54:22.907Z,10.40
2018-10-01T07:56:51.028Z,10.40
2018-10-01T07:59:19.144Z,10.40
2018-10-01T08:01:47.251Z,10.50
2018-10-01T08:04:15.371Z,10.50
2018-10-01T08:06:43.488Z,10.60
2018-10-01T08:09:11.681Z,10.90
2018-10-01T08:11:39.835Z,11.10
2018-10-01T08:14:08.025Z,11.60
2018-10-01T08:16:36.152Z,12.10
2018-10-01T08:19:04.243Z,12.50
2018-10-01T08:21:32.393Z,12.90
2018-10-01T08:24:07.330Z,13.40
2018-10-01T08:26:35.446Z,13.90
2018-10-01T08:29:03.584Z,14.20
2018-10-01T08:31:31.782Z,14.50
2018-10-01T08:33:59.905Z,14.30
2018-10-01T08:36:28.111Z,13.90
2018-10-01T08:38:56.366Z,14.10
2018-10-01T08:41:24.496Z,14.80
2018-10-01T08:43:52.616Z,15.40
2018-10-01T08:46:20.747Z,16.20
2018-10-01T08:49:11.932Z,16.20
2018-10-01T08:51:45.678Z,15.70
2018-10-01T08:54:19.259Z,15.20
2018-10-01T08:56:47.392Z,14.40
2018-10-01T08:59:15.572Z,14.10
2018-10-01T09:01:43.636Z,14.00
2018-10-01T09:04:11.770Z,13.90
2018-10-01T09:06:39.930Z,13.90
2018-10-01T09:09:10.987Z,13.80
2018-10-01T09:11:39.132Z,13.70
2018-10-01T09:14:07.442Z,13.60
2018-10-01T09:16:35.506Z,13.60
2018-10-01T09:19:03.654Z,13.30
2018-10-01T09:21:31.861Z,13.30
2018-10-01T09:24:01.055Z,13.30
2018-10-01T09:26:29.302Z,13.40
2018-10-01T09:28:57.427Z,13.80
2018-10-01T09:31:25.511Z,14.20
2018-10-01T09:33:53.645Z,14.20
2018-10-01T09:36:22.135Z,13.80
2018-10-01T09:38:50.286Z,14.00
2018-10-01T09:41:18.417Z,14.20
2018-10-01T09:43:46.523Z,14.60
2018-10-01T09:46:14.731Z,15.00
2018-10-01T09:48:42.763Z,15.30
2018-10-01T09:54:02.323Z,15.40
2018-10-01T09:56:31.089Z,15.20
2018-10-01T09:58:59.432Z,14.90
2018-10-01T10:01:27.804Z,14.80
2018-10-01T10:03:56.128Z,14.70
2018-10-01T10:06:24.514Z,14.80
2018-10-01T10:08:53.039Z,14.50
2018-10-01T10:11:21.449Z,14.50
2018-10-01T10:13:49.807Z,14.50
2018-10-01T10:16:18.234Z,14.40
2018-10-01T10:18:46.591Z,14.20
2018-10-01T10:21:15.042Z,14.30
2018-10-01T10:23:43.367Z,14.10
2018-10-01T10:26:11.868Z,14.10
2018-10-01T10:28:40.107Z,14.00
2018-10-01T10:31:08.532Z,14.00
2018-10-01T10:33:36.872Z,13.80
2018-10-01T10:36:05.243Z,13.90
2018-10-01T10:38:33.688Z,14.00
2018-10-01T10:41:02.076Z,14.00
2018-10-01T10:43:30.416Z,14.10
2018-10-01T10:45:58.831Z,14.20
2018-10-01T10:48:27.210Z,14.10
2018-10-01T10:50:55.563Z,14.20
2018-10-01T10:53:23.907Z,14.10
2018-10-01T10:55:52.281Z,14.00
2018-10-01T10:58:20.654Z,14.20
2018-10-01T11:00:49.046Z,14.30
2018-10-01T11:03:17.414Z,14.20
2018-10-01T11:05:45.770Z,14.20
2018-10-01T11:08:14.177Z,14.20
2018-10-01T11:10:42.802Z,14.20
2018-10-01T11:13:11.343Z,14.20
2018-10-01T11:15:39.812Z,14.30
2018-10-01T11:18:08.235Z,14.30
2018-10-01T11:20:36.615Z,14.50
2018-10-01T11:23:04.951Z,14.40
2018-10-01T11:25:33.452Z,14.40
2018-10-01T11:28:01.767Z,14.50
2018-10-01T11:30:30.191Z,14.30
2018-10-01T11:32:58.695Z,14.20
2018-10-01T11:35:27.091Z,14.10
2018-10-01T11:37:55.446Z,14.20
2018-10-01T11:40:23.795Z,14.10
2018-10-01T11:42:52.187Z,14.10
2018-10-01T11:45:20.659Z,14.10
2018-10-01T11:47:48.980Z,14.20
2018-10-01T11:50:17.407Z,14.20
2018-10-01T11:52:45.770Z,14.10
2018-10-01T11:55:14.146Z,14.20
2018-10-01T11:57:42.583Z,14.20
2018-10-01T12:00:11.127Z,14.30
2018-10-01T12:02:39.451Z,14.20
2018-10-01T12:05:08.292Z,14.20
2018-10-01T12:07:36.669Z,14.40
2018-10-01T12:10:05.090Z,14.30
2018-10-01T12:12:33.395Z,14.30
2018-10-01T12:15:01.924Z,14.20
2018-10-01T12:17:30.231Z,14.20
2018-10-01T12:19:59.051Z,14.40
2018-10-01T12:22:27.442Z,14.40
2018-10-01T12:24:55.786Z,14.30
2018-10-01T12:27:24.202Z,14.40
2018-10-01T12:29:52.615Z,14.30
2018-10-01T12:32:21.206Z,14.20
2018-10-01T12:34:49.831Z,14.10
2018-10-01T12:37:18.255Z,14.20
2018-10-01T12:39:46.670Z,14.10
2018-10-01T12:42:15.000Z,14.10
2018-10-01T12:44:43.382Z,14.10
2018-10-01T12:47:11.915Z,14.30
2018-10-01T12:49:40.311Z,14.40
2018-10-01T12:52:08.674Z,14.40
2018-10-01T12:54:37.026Z,14.50
2018-10-01T12:57:05.443Z,14.40
2018-10-01T12:59:33.787Z,14.40
2018-10-01T13:02:02.150Z,14.50
2018-10-01T13:04:30.526Z,14.60
2018-10-01T13:06:58.908Z,14.50
2018-10-01T13:09:27.283Z,14.50
2018-10-01T13:11:55.686Z,14.30
2018-10-01T13:14:24.018Z,14.30
2018-10-01T13:16:52.374Z,14.20
2018-10-01T13:19:20.746Z,14.20
2018-10-01T13:21:49.079Z,14.30
2018-10-01T13:24:17.628Z,14.50
2018-10-01T13:26:45.978Z,14.70
2018-10-01T13:29:21.105Z,14.70
2018-10-01T13:31:49.492Z,14.80
2018-10-01T13:34:17.913Z,14.60
2018-10-01T13:36:46.462Z,14.50
2018-10-01T13:39:14.807Z,14.40
2018-10-01T13:41:43.166Z,14.20
2018-10-01T13:44:11.592Z,14.00
2018-10-01T13:46:40.004Z,13.80
2018-10-01T13:49:08.442Z,13.60
2018-10-01T13:51:36.801Z,13.40
2018-10-01T13:54:05.190Z,13.30
2018-10-01T13:56:33.555Z,13.20
2018-10-01T13:59:01.943Z,13.00
2018-10-01T14:01:36.810Z,13.00
2018-10-01T14:04:05.199Z,12.90
2018-10-01T14:06:33.590Z,12.90
2018-10-01T14:09:01.937Z,12.70
2018-10-01T14:11:30.325Z,12.70
2018-10-01T14:13:58.689Z,12.70
2018-10-01T14:16:26.986Z,12.70
2018-10-01T14:18:55.407Z,12.70
2018-10-01T14:21:23.787Z,12.70
2018-10-01T14:23:52.103Z,12.70
2018-10-01T14:26:20.461Z,12.60
2018-10-01T14:28:48.871Z,12.50
2018-10-01T14:31:17.199Z,12.50
2018-10-01T14:33:45.538Z,12.50
2018-10-01T14:36:13.977Z,12.40
2018-10-01T14:38:42.327Z,12.30
2018-10-01T14:41:10.674Z,12.20
2018-10-01T14:43:40.030Z,12.10
2018-10-01T14:46:08.407Z,12.10
2018-10-01T14:48:36.892Z,12.10
2018-10-01T14:51:05.245Z,12.20
2018-10-01T14:53:33.586Z,12.20
2018-10-01T14:56:01.934Z,12.30
2018-10-01T14:58:31.335Z,12.30
2018-10-01T15:00:59.696Z,12.30
2018-10-01T15:03:28.068Z,12.30
2018-10-01T15:05:56.470Z,12.20
2018-10-01T15:08:24.824Z,12.20
2018-10-01T15:10:53.203Z,12.20
2018-10-01T15:13:21.563Z,12.10
2018-10-01T15:15:49.886Z,12.10
2018-10-01T15:18:18.330Z,12.10
2018-10-01T15:20:46.651Z,12.10
2018-10-01T15:23:14.994Z,12.00
2018-10-01T15:25:43.611Z,12.00
2018-10-01T15:28:13.809Z,11.90
2018-10-01T15:30:42.303Z,11.90
2018-10-01T15:33:10.522Z,11.80
2018-10-01T15:35:39.039Z,11.80
2018-10-01T15:38:07.406Z,11.80
2018-10-01T15:40:35.830Z,11.70
2018-10-01T15:43:04.147Z,11.70
2018-10-01T15:45:33.180Z,11.70
2018-10-01T15:48:02.481Z,11.70
2018-10-01T15:50:30.879Z,11.60
2018-10-01T15:52:59.236Z,11.60
2018-10-01T15:55:27.624Z,11.30
2018-10-01T15:57:55.958Z,11.40
2018-10-01T16:00:25.545Z,11.30
2018-10-01T16:02:55.030Z,11.20
2018-10-01T16:05:24.082Z,11.20
2018-10-01T16:07:52.425Z,11.10
2018-10-01T16:10:20.859Z,11.10
2018-10-01T16:12:49.181Z,11.10
2018-10-01T16:15:17.513Z,10.90
2018-10-01T16:17:45.885Z,10.80
2018-10-01T16:20:14.800Z,10.80
2018-10-01T16:22:43.129Z,10.80
2018-10-01T16:25:11.502Z,10.80
2018-10-01T16:27:39.880Z,10.80
2018-10-01T16:30:08.771Z,10.70
2018-10-01T16:32:37.178Z,10.70
2018-10-01T16:35:05.590Z,10.70
2018-10-01T16:37:33.944Z,10.70
2018-10-01T16:40:02.320Z,10.70
2018-10-01T16:42:30.750Z,10.60
2018-10-01T16:44:59.131Z,10.60
2018-10-01T16:47:27.561Z,10.60
2018-10-01T16:49:55.907Z,10.60
2018-10-01T16:52:25.123Z,10.50
2018-10-01T16:54:53.444Z,10.50
2018-10-01T16:57:21.893Z,10.40
2018-10-01T16:59:51.269Z,10.40
2018-10-01T17:02:19.630Z,10.40
2018-10-01T17:04:47.986Z,10.40
2018-10-01T17:07:16.602Z,10.40
2018-10-01T17:09:45.014Z,10.40
2018-10-01T17:12:13.363Z,10.40
2018-10-01T17:14:41.675Z,10.40
2018-10-01T17:17:10.038Z,10.30
2018-10-01T17:19:38.483Z,10.30
2018-10-01T17:22:06.894Z,10.30
2018-10-01T17:24:35.324Z,10.30
2018-10-01T17:27:03.675Z,10.30
2018-10-01T17:29:31.992Z,10.30
2018-10-01T17:32:00.402Z,10.30
2018-10-01T17:34:28.823Z,10.30
2018-10-01T17:36:57.154Z,10.30
2018-10-01T17:39:25.517Z,10.30
2018-10-01T17:41:53.854Z,10.10
2018-10-01T17:44:22.256Z,10.10
2018-10-01T17:46:50.638Z,10.10
2018-10-01T17:49:18.999Z,10.20
2018-10-01T17:51:47.375Z,10.10
2018-10-01T17:56:55.034Z,10.00
2018-10-01T17:59:23.418Z,10.00
2018-10-01T18:01:51.770Z,9.90
2018-10-01T18:04:20.220Z,9.80
2018-10-01T18:06:48.553Z,9.90
2018-10-01T18:09:16.882Z,9.80
2018-10-01T18:11:45.361Z,9.90
2018-10-01T18:14:13.794Z,9.90
2018-10-01T18:16:42.134Z,9.90
2018-10-01T18:19:10.477Z,9.90
2018-10-01T18:21:38.990Z,10.00
2018-10-01T18:24:07.391Z,10.00
2018-10-01T18:26:35.850Z,10.00
2018-10-01T18:29:04.222Z,10.00
2018-10-01T18:31:32.601Z,10.00
2018-10-01T18:34:01.187Z,10.10
2018-10-01T18:36:29.525Z,10.10
2018-10-01T18:38:57.890Z,10.10
2018-10-01T18:41:26.334Z,10.00
2018-10-01T18:43:54.703Z,10.00
2018-10-01T18:46:23.089Z,10.00
2018-10-01T18:48:51.402Z,10.10
2018-10-01T18:51:19.824Z,10.10
2018-10-01T18:53:48.245Z,10.00
2018-10-01T18:56:16.556Z,9.90
2018-10-01T18:58:44.902Z,9.80
2018-10-01T19:01:13.257Z,9.80
2018-10-01T19:03:41.608Z,9.80
2018-10-01T19:06:10.028Z,9.80
2018-10-01T19:08:38.318Z,9.80
2018-10-01T19:11:06.902Z,9.80
2018-10-01T19:13:35.310Z,9.80
2018-10-01T19:16:03.674Z,9.80
2018-10-01T19:18:32.071Z,9.70
2018-10-01T19:21:00.473Z,9.70
2018-10-01T19:23:28.843Z,9.60
2018-10-01T19:25:57.269Z,9.60
2018-10-01T19:28:25.586Z,9.60
2018-10-01T19:30:53.934Z,9.50
2018-10-01T19:33:22.369Z,9.50
2018-10-01T19:35:50.714Z,9.50
2018-10-01T19:38:19.038Z,9.50
2018-10-01T19:40:47.523Z,9.50
2018-10-01T19:43:15.862Z,9.50
2018-10-01T19:45:44.373Z,9.40
2018-10-01T19:48:12.784Z,9.40
2018-10-01T19:50:41.189Z,9.40
2018-10-01T19:53:09.531Z,9.40
2018-10-01T19:55:37.898Z,9.40
2018-10-01T19:58:06.396Z,9.40
2018-10-01T20:00:34.857Z,9.40
2018-10-01T20:03:03.735Z,9.40
2018-10-01T20:05:31.980Z,9.40
2018-10-01T20:08:00.446Z,9.40
2018-10-01T20:10:28.836Z,9.40
2018-10-01T20:12:57.266Z,9.50
2018-10-01T20:15:25.736Z,9.50
2018-10-01T20:17:54.075Z,9.50
2018-10-01T20:20:22.510Z,9.50
2018-10-01T20:22:52.977Z,9.50
2018-10-01T20:25:21.331Z,9.40
2018-10-01T20:27:49.826Z,9.40
2018-10-01T20:30:18.582Z,9.40
2018-10-01T20:32:46.961Z,9.40
2018-10-01T20:35:15.421Z,9.40
2018-10-01T20:37:43.813Z,9.50
2018-10-01T20:40:12.157Z,9.50
2018-10-01T20:42:40.492Z,9.50
2018-10-01T20:45:09.018Z,9.50
2018-10-01T20:47:37.468Z,9.40
2018-10-01T20:50:05.941Z,9.40
2018-10-01T20:52:34.335Z,9.40
2018-10-01T20:55:02.631Z,9.40
2018-10-01T20:57:31.005Z,9.40
2018-10-01T20:59:59.352Z,9.40
2018-10-01T21:02:27.853Z,9.50
2018-10-01T21:04:56.116Z,9.40
2018-10-01T21:07:24.518Z,9.40
2018-10-01T21:09:52.832Z,9.40
2018-10-01T21:12:21.126Z,9.40
2018-10-01T21:14:49.501Z,9.40
2018-10-01T21:17:17.910Z,9.40
2018-10-01T21:19:46.373Z,9.40
2018-10-01T21:22:15.565Z,9.40
2018-10-01T21:24:43.990Z,9.40
2018-10-01T21:27:12.322Z,9.40
2018-10-01T21:29:40.756Z,9.40
2018-10-01T21:32:09.082Z,9.30
2018-10-01T21:34:37.440Z,9.40
2018-10-01T21:37:05.790Z,9.40
2018-10-01T21:40:12.272Z,9.30
2018-10-01T21:42:41.133Z,9.40
2018-10-01T21:45:10.671Z,9.40
2018-10-01T21:47:39.078Z,9.40
2018-10-01T21:50:07.773Z,9.30
2018-10-01T21:52:36.112Z,9.30
2018-10-01T21:55:04.438Z,9.30
2018-10-01T21:57:33.096Z,9.30
2018-10-01T22:00:01.438Z,9.20
2018-10-01T22:02:29.826Z,9.20
2018-10-01T22:04:58.160Z,9.20
2018-10-01T22:07:26.507Z,9.20
2018-10-01T22:09:54.987Z,9.10
2018-10-01T22:12:23.310Z,9.00
2018-10-01T22:14:51.639Z,9.00
2018-10-01T22:17:20.078Z,9.00
2018-10-01T22:19:48.400Z,9.00
2018-10-01T22:22:16.753Z,9.00
2018-10-01T22:24:45.126Z,8.90
2018-10-01T22:27:13.438Z,8.90
2018-10-01T22:29:41.830Z,8.90
2018-10-01T22:32:10.158Z,8.90
2018-10-01T22:34:38.494Z,8.90
2018-10-01T22:37:06.949Z,8.80
2018-10-01T22:39:35.286Z,8.80
2018-10-01T22:42:03.650Z,8.90
2018-10-01T22:44:32.006Z,8.90
2018-10-01T22:47:00.942Z,8.90
2018-10-01T22:49:29.310Z,8.80
2018-10-01T22:51:57.679Z,8.70
2018-10-01T22:54:26.030Z,8.70
2018-10-01T22:56:54.394Z,8.70
2018-10-01T22:59:22.717Z,8.60
2018-10-01T23:01:51.047Z,8.60
2018-10-01T23:04:19.389Z,8.50
2018-10-01T23:06:47.772Z,8.50
2018-10-01T23:09:16.137Z,8.40
2018-10-01T23:11:44.509Z,8.40
2018-10-01T23:14:12.849Z,8.40
2018-10-01T23:16:41.218Z,8.40
2018-10-01T23:19:09.540Z,8.40
2018-10-01T23:21:37.952Z,8.40
2018-10-01T23:24:06.289Z,8.40
2018-10-01T23:26:34.636Z,8.40
2018-10-01T23:29:03.049Z,8.40
2018-10-01T23:31:31.369Z,8.30
2018-10-01T23:33:59.721Z,8.30
2018-10-01T23:36:28.083Z,8.30
2018-10-01T23:38:56.453Z,8.20
2018-10-01T23:41:24.781Z,8.20
2018-10-01T23:43:53.137Z,8.20
2018-10-01T23:46:21.485Z,8.10
2018-10-01T23:48:49.825Z,8.00
2018-10-01T23:51:18.189Z,8.00
2018-10-01T23:53:46.550Z,8.00
2018-10-01T23:56:14.872Z,8.10
2018-10-01T23:58:43.221Z,8.10
